Aérodrome :
LOGIN :

S'inscrire | Disclaimer

   EN    FR    IT 

 










Légende :    VFR   VFR Marginal   IFR   IFR Intensif   IFR Très Intensif
Visi : 
Plafond : 
>= 8 km
>= 3000ft
5 à 8 km
1000 à 3000 ft
1500m à 5 km
500 à 1000 ft
800 à 1500m
200 à 500 ft
< 800m
< 200 ft
Symboles :   Orages  Brouillard  Fortes neiges  Fortes précipitations  Vent > 20 kt
SIGMETs :   Divers  Orages  Givrage  Turbulence  Onde Orograph.  Cendres Volcan.






- Altitude de l'aérodrome : 17 ft
- Code IATA : CPH


EKCH - København - Kastrup (Copenhagen)

DERNIER METAR :
  • 221650Z AUTO 26022KT 9999 FEW035/// 06/02 Q1000 TEMPO 26025G35KT

METARs EXPIRÉS :
  • 221620Z AUTO 26020G33KT 9999 FEW091/// FEW110/// BKN130/// 05/02 Q0999 TEMPO 26025G35KT
  • 221550Z 26020KT 9999 FEW020CB SCT030 BKN100 05/02 Q0999 TEMPO 26030G45KT
  • 221520Z 25021G34KT 8000 -SHRA SCT020CB BKN030 07/04 Q0999 TEMPO 26030G45KT SHRAGS
  • 221450Z AUTO 26024G35KT 9999 BKN030/// 08/03 Q0999 TEMPO 26030G45KT SHRAGS SCT020CB
  • 221420Z AUTO 26022G32KT 9999 FEW029/// BKN120/// 08/04 Q0998 TEMPO 26030G45KT

TAF TAF EKCH
Valide du 22 à 12h jusqu'au 23 à 12h UTC


221101Z 2212/2312 26020KT 9999 BKN020
TEMPO 2212/2216 26030G45KT SHRA BKN012 SCT020CB
TEMPO 2216/2224 26025G38KT SHRA SCT020CB
TEMPO 2300/2306 26020G30KT 3000 SHRAGS SCT020CB
TEMPO 2306/2312 26015G25KT



MET'MAP, la Météo Aéronautique d'un coup d'oeil ! - Copyright ORBIFLY Décembre 2007 - Disclaimer

ORBIFLY MET'MAP TEAM :

Programmation & Développement : Alexandra Zaïnal
Sur une idée originale de : Baudouin d'Aumeries
Assistance à la programmation : Marc-Olivier Méhu
Soutien technique & logistique : Manuel Goepfert

Contact : metmap@orbifly.com




SOURCES & CREDITS :

   NOAA